sensor_id;sensor_type;location;lat;lon;timestamp;temperature;humidity
42743;DHT22;28397;44.552;-0.848;2023-02-17T00:00:18;3.40;99.90
42743;DHT22;28397;44.552;-0.848;2023-02-17T00:02:44;3.30;99.90
42743;DHT22;28397;44.552;-0.848;2023-02-17T00:05:10;3.30;99.90
42743;DHT22;28397;44.552;-0.848;2023-02-17T00:07:36;3.30;99.90
42743;DHT22;28397;44.552;-0.848;2023-02-17T00:10:02;3.40;99.90
42743;DHT22;28397;44.552;-0.848;2023-02-17T00:12:28;3.50;99.90
42743;DHT22;28397;44.552;-0.848;2023-02-17T00:14:54;3.60;99.90
42743;DHT22;28397;44.552;-0.848;2023-02-17T00:17:19;3.70;99.90
42743;DHT22;28397;44.552;-0.848;2023-02-17T00:19:45;3.60;99.90
42743;DHT22;28397;44.552;-0.848;2023-02-17T00:22:11;3.60;99.90
42743;DHT22;28397;44.552;-0.848;2023-02-17T00:24:38;3.60;99.90
42743;DHT22;28397;44.552;-0.848;2023-02-17T00:27:05;3.50;99.90
42743;DHT22;28397;44.552;-0.848;2023-02-17T00:29:31;3.50;99.90
42743;DHT22;28397;44.552;-0.848;2023-02-17T00:31:57;3.50;99.90
42743;DHT22;28397;44.552;-0.848;2023-02-17T00:34:23;3.40;99.90
42743;DHT22;28397;44.552;-0.848;2023-02-17T00:36:50;3.40;99.90
42743;DHT22;28397;44.552;-0.848;2023-02-17T00:39:16;3.40;99.90
42743;DHT22;28397;44.552;-0.848;2023-02-17T00:41:43;3.40;99.90
42743;DHT22;28397;44.552;-0.848;2023-02-17T00:44:17;3.30;99.90
42743;DHT22;28397;44.552;-0.848;2023-02-17T00:46:44;3.40;99.90
42743;DHT22;28397;44.552;-0.848;2023-02-17T00:49:16;3.50;99.90
42743;DHT22;28397;44.552;-0.848;2023-02-17T00:51:43;3.40;99.90
42743;DHT22;28397;44.552;-0.848;2023-02-17T00:54:09;3.40;99.90
42743;DHT22;28397;44.552;-0.848;2023-02-17T00:56:35;3.40;99.90
42743;DHT22;28397;44.552;-0.848;2023-02-17T00:59:01;3.40;99.90
42743;DHT22;28397;44.552;-0.848;2023-02-17T01:01:26;3.40;99.90
42743;DHT22;28397;44.552;-0.848;2023-02-17T01:03:52;3.60;99.90
42743;DHT22;28397;44.552;-0.848;2023-02-17T01:06:24;3.50;99.90
42743;DHT22;28397;44.552;-0.848;2023-02-17T01:08:50;3.50;99.90
42743;DHT22;28397;44.552;-0.848;2023-02-17T01:11:22;3.40;99.90
42743;DHT22;28397;44.552;-0.848;2023-02-17T01:13:48;3.40;99.90
42743;DHT22;28397;44.552;-0.848;2023-02-17T01:16:17;3.30;99.90
42743;DHT22;28397;44.552;-0.848;2023-02-17T01:18:43;3.30;99.90
42743;DHT22;28397;44.552;-0.848;2023-02-17T01:21:23;3.20;99.90
42743;DHT22;28397;44.552;-0.848;2023-02-17T01:23:55;3.20;99.90
42743;DHT22;28397;44.552;-0.848;2023-02-17T01:26:24;3.20;99.90
42743;DHT22;28397;44.552;-0.848;2023-02-17T01:28:51;3.30;99.90
42743;DHT22;28397;44.552;-0.848;2023-02-17T01:31:17;3.40;99.90
42743;DHT22;28397;44.552;-0.848;2023-02-17T01:33:44;3.40;99.90
42743;DHT22;28397;44.552;-0.848;2023-02-17T01:36:12;3.40;99.90
42743;DHT22;28397;44.552;-0.848;2023-02-17T01:38:38;3.30;99.90
42743;DHT22;28397;44.552;-0.848;2023-02-17T01:41:05;3.30;99.90
42743;DHT22;28397;44.552;-0.848;2023-02-17T01:43:31;3.30;99.90
42743;DHT22;28397;44.552;-0.848;2023-02-17T01:45:59;3.30;99.90
42743;DHT22;28397;44.552;-0.848;2023-02-17T01:48:31;3.30;99.90
42743;DHT22;28397;44.552;-0.848;2023-02-17T01:51:02;3.30;99.90
42743;DHT22;28397;44.552;-0.848;2023-02-17T01:53:34;3.30;99.90
42743;DHT22;28397;44.552;-0.848;2023-02-17T01:56:02;3.30;99.90
42743;DHT22;28397;44.552;-0.848;2023-02-17T01:58:30;3.30;99.90
42743;DHT22;28397;44.552;-0.848;2023-02-17T02:00:59;3.40;99.90
42743;DHT22;28397;44.552;-0.848;2023-02-17T02:03:27;3.50;99.90
42743;DHT22;28397;44.552;-0.848;2023-02-17T02:05:54;3.50;99.90
42743;DHT22;28397;44.552;-0.848;2023-02-17T02:08:20;3.50;99.90
42743;DHT22;28397;44.552;-0.848;2023-02-17T02:10:46;3.50;99.90
42743;DHT22;28397;44.552;-0.848;2023-02-17T02:13:11;3.50;99.90
42743;DHT22;28397;44.552;-0.848;2023-02-17T02:15:46;3.50;99.90
42743;DHT22;28397;44.552;-0.848;2023-02-17T02:23:55;3.70;99.90
42743;DHT22;28397;44.552;-0.848;2023-02-17T02:26:43;3.60;99.90
42743;DHT22;28397;44.552;-0.848;2023-02-17T02:32:24;3.70;99.90
42743;DHT22;28397;44.552;-0.848;2023-02-17T02:37:52;3.80;99.90
42743;DHT22;28397;44.552;-0.848;2023-02-17T02:40:23;3.80;99.90
42743;DHT22;28397;44.552;-0.848;2023-02-17T02:42:52;3.80;99.90
42743;DHT22;28397;44.552;-0.848;2023-02-17T02:45:18;3.80;99.90
42743;DHT22;28397;44.552;-0.848;2023-02-17T02:47:47;3.80;99.90
42743;DHT22;28397;44.552;-0.848;2023-02-17T02:50:17;3.80;99.90
42743;DHT22;28397;44.552;-0.848;2023-02-17T03:01:36;4.00;99.90
42743;DHT22;28397;44.552;-0.848;2023-02-17T03:06:35;3.90;99.90
42743;DHT22;28397;44.552;-0.848;2023-02-17T03:09:04;4.00;99.90
42743;DHT22;28397;44.552;-0.848;2023-02-17T03:11:31;4.00;99.90
42743;DHT22;28397;44.552;-0.848;2023-02-17T03:14:05;4.00;99.90
42743;DHT22;28397;44.552;-0.848;2023-02-17T03:16:32;3.90;99.90
42743;DHT22;28397;44.552;-0.848;2023-02-17T03:18:58;3.90;99.90
42743;DHT22;28397;44.552;-0.848;2023-02-17T03:21:29;3.90;99.90
42743;DHT22;28397;44.552;-0.848;2023-02-17T03:23:56;3.90;99.90
42743;DHT22;28397;44.552;-0.848;2023-02-17T03:26:21;3.90;99.90
42743;DHT22;28397;44.552;-0.848;2023-02-17T03:28:47;3.90;99.90
42743;DHT22;28397;44.552;-0.848;2023-02-17T03:31:13;3.90;99.90
42743;DHT22;28397;44.552;-0.848;2023-02-17T03:33:38;3.90;99.90
42743;DHT22;28397;44.552;-0.848;2023-02-17T03:36:04;3.80;99.90
42743;DHT22;28397;44.552;-0.848;2023-02-17T03:38:30;3.80;99.90
42743;DHT22;28397;44.552;-0.848;2023-02-17T03:40:56;3.80;99.90
42743;DHT22;28397;44.552;-0.848;2023-02-17T03:43:22;3.80;99.90
42743;DHT22;28397;44.552;-0.848;2023-02-17T03:45:47;3.80;99.90
42743;DHT22;28397;44.552;-0.848;2023-02-17T03:48:13;3.70;99.90
42743;DHT22;28397;44.552;-0.848;2023-02-17T03:50:39;3.80;99.90
42743;DHT22;28397;44.552;-0.848;2023-02-17T03:53:04;3.80;99.90
42743;DHT22;28397;44.552;-0.848;2023-02-17T03:55:30;3.80;99.90
42743;DHT22;28397;44.552;-0.848;2023-02-17T03:57:56;3.80;99.90
42743;DHT22;28397;44.552;-0.848;2023-02-17T04:00:22;3.80;99.90
42743;DHT22;28397;44.552;-0.848;2023-02-17T04:02:47;3.90;99.90
42743;DHT22;28397;44.552;-0.848;2023-02-17T04:05:13;3.90;99.90
42743;DHT22;28397;44.552;-0.848;2023-02-17T04:07:39;3.80;99.90
42743;DHT22;28397;44.552;-0.848;2023-02-17T04:10:05;3.80;99.90
42743;DHT22;28397;44.552;-0.848;2023-02-17T04:12:31;3.80;99.90
42743;DHT22;28397;44.552;-0.848;2023-02-17T04:14:57;3.70;99.90
42743;DHT22;28397;44.552;-0.848;2023-02-17T04:17:23;3.80;99.90
42743;DHT22;28397;44.552;-0.848;2023-02-17T04:19:48;3.80;99.90
42743;DHT22;28397;44.552;-0.848;2023-02-17T04:22:14;3.60;99.90
42743;DHT22;28397;44.552;-0.848;2023-02-17T04:24:40;3.60;99.90
42743;DHT22;28397;44.552;-0.848;2023-02-17T04:27:05;3.50;99.90
42743;DHT22;28397;44.552;-0.848;2023-02-17T04:29:32;3.50;99.90
42743;DHT22;28397;44.552;-0.848;2023-02-17T04:31:58;3.40;99.90
42743;DHT22;28397;44.552;-0.848;2023-02-17T04:34:23;3.40;99.90
42743;DHT22;28397;44.552;-0.848;2023-02-17T04:36:49;3.40;99.90
42743;DHT22;28397;44.552;-0.848;2023-02-17T04:39:15;3.30;99.90
42743;DHT22;28397;44.552;-0.848;2023-02-17T04:41:40;3.30;99.90
42743;DHT22;28397;44.552;-0.848;2023-02-17T04:44:06;3.40;99.90
42743;DHT22;28397;44.552;-0.848;2023-02-17T04:46:32;3.40;99.90
42743;DHT22;28397;44.552;-0.848;2023-02-17T04:48:57;3.40;99.90
42743;DHT22;28397;44.552;-0.848;2023-02-17T04:51:23;3.50;99.90
42743;DHT22;28397;44.552;-0.848;2023-02-17T04:53:49;3.50;99.90
42743;DHT22;28397;44.552;-0.848;2023-02-17T04:56:14;3.40;99.90
42743;DHT22;28397;44.552;-0.848;2023-02-17T04:58:40;3.40;99.90
42743;DHT22;28397;44.552;-0.848;2023-02-17T05:01:06;3.40;99.90
42743;DHT22;28397;44.552;-0.848;2023-02-17T05:03:31;3.40;99.90
42743;DHT22;28397;44.552;-0.848;2023-02-17T05:05:57;3.30;99.90
42743;DHT22;28397;44.552;-0.848;2023-02-17T05:08:23;3.30;99.90
42743;DHT22;28397;44.552;-0.848;2023-02-17T05:10:52;3.30;99.90
42743;DHT22;28397;44.552;-0.848;2023-02-17T05:13:18;3.20;99.90
42743;DHT22;28397;44.552;-0.848;2023-02-17T05:15:44;3.10;99.90
42743;DHT22;28397;44.552;-0.848;2023-02-17T05:18:11;3.10;99.90
42743;DHT22;28397;44.552;-0.848;2023-02-17T05:20:37;3.10;99.90
42743;DHT22;28397;44.552;-0.848;2023-02-17T05:23:02;3.10;99.90
42743;DHT22;28397;44.552;-0.848;2023-02-17T05:25:28;3.00;99.90
42743;DHT22;28397;44.552;-0.848;2023-02-17T05:27:54;3.00;99.90
42743;DHT22;28397;44.552;-0.848;2023-02-17T05:30:20;3.10;99.90
42743;DHT22;28397;44.552;-0.848;2023-02-17T05:32:46;3.10;99.90
42743;DHT22;28397;44.552;-0.848;2023-02-17T05:35:12;3.10;99.90
42743;DHT22;28397;44.552;-0.848;2023-02-17T05:37:38;3.10;99.90
42743;DHT22;28397;44.552;-0.848;2023-02-17T05:40:04;3.10;99.90
42743;DHT22;28397;44.552;-0.848;2023-02-17T05:42:30;3.00;99.90
42743;DHT22;28397;44.552;-0.848;2023-02-17T05:44:56;3.00;99.90
42743;DHT22;28397;44.552;-0.848;2023-02-17T05:47:22;3.00;99.90
42743;DHT22;28397;44.552;-0.848;2023-02-17T05:49:48;2.90;99.90
42743;DHT22;28397;44.552;-0.848;2023-02-17T05:52:13;2.80;99.90
42743;DHT22;28397;44.552;-0.848;2023-02-17T05:54:39;2.80;99.90
42743;DHT22;28397;44.552;-0.848;2023-02-17T05:57:05;2.80;99.90
42743;DHT22;28397;44.552;-0.848;2023-02-17T05:59:30;2.70;99.90
42743;DHT22;28397;44.552;-0.848;2023-02-17T06:01:56;2.60;99.90
42743;DHT22;28397;44.552;-0.848;2023-02-17T06:04:22;2.60;99.90
42743;DHT22;28397;44.552;-0.848;2023-02-17T06:06:47;2.60;99.90
42743;DHT22;28397;44.552;-0.848;2023-02-17T06:09:13;2.60;99.90
42743;DHT22;28397;44.552;-0.848;2023-02-17T06:11:39;2.60;99.90
42743;DHT22;28397;44.552;-0.848;2023-02-17T06:14:04;2.60;99.90
42743;DHT22;28397;44.552;-0.848;2023-02-17T06:16:30;2.50;99.90
42743;DHT22;28397;44.552;-0.848;2023-02-17T06:18:56;2.50;99.90
42743;DHT22;28397;44.552;-0.848;2023-02-17T06:21:24;2.50;99.90
42743;DHT22;28397;44.552;-0.848;2023-02-17T06:23:50;2.50;99.90
42743;DHT22;28397;44.552;-0.848;2023-02-17T06:26:16;2.50;99.90
42743;DHT22;28397;44.552;-0.848;2023-02-17T06:28:43;2.40;99.90
42743;DHT22;28397;44.552;-0.848;2023-02-17T06:31:08;2.40;99.90
42743;DHT22;28397;44.552;-0.848;2023-02-17T06:33:34;2.40;99.90
42743;DHT22;28397;44.552;-0.848;2023-02-17T06:36:00;2.40;99.90
42743;DHT22;28397;44.552;-0.848;2023-02-17T06:38:26;2.40;99.90
42743;DHT22;28397;44.552;-0.848;2023-02-17T06:40:52;2.40;99.90
42743;DHT22;28397;44.552;-0.848;2023-02-17T06:43:18;2.40;99.90
42743;DHT22;28397;44.552;-0.848;2023-02-17T06:45:43;2.40;99.90
42743;DHT22;28397;44.552;-0.848;2023-02-17T06:48:09;2.40;99.90
42743;DHT22;28397;44.552;-0.848;2023-02-17T06:50:35;2.40;99.90
42743;DHT22;28397;44.552;-0.848;2023-02-17T06:53:00;2.40;99.90
42743;DHT22;28397;44.552;-0.848;2023-02-17T06:55:26;2.40;99.90
42743;DHT22;28397;44.552;-0.848;2023-02-17T06:57:52;2.40;99.90
42743;DHT22;28397;44.552;-0.848;2023-02-17T07:00:18;2.50;99.90
42743;DHT22;28397;44.552;-0.848;2023-02-17T07:02:44;2.50;99.90
42743;DHT22;28397;44.552;-0.848;2023-02-17T07:05:09;2.50;99.90
42743;DHT22;28397;44.552;-0.848;2023-02-17T07:07:35;2.50;99.90
42743;DHT22;28397;44.552;-0.848;2023-02-17T07:10:01;2.50;99.90
42743;DHT22;28397;44.552;-0.848;2023-02-17T07:12:28;2.50;99.90
42743;DHT22;28397;44.552;-0.848;2023-02-17T07:14:53;2.60;99.90
42743;DHT22;28397;44.552;-0.848;2023-02-17T07:17:19;2.60;99.90
42743;DHT22;28397;44.552;-0.848;2023-02-17T07:19:45;2.70;99.90
42743;DHT22;28397;44.552;-0.848;2023-02-17T07:22:10;2.80;99.90
42743;DHT22;28397;44.552;-0.848;2023-02-17T07:24:36;2.90;99.90
42743;DHT22;28397;44.552;-0.848;2023-02-17T07:27:04;3.00;99.90
42743;DHT22;28397;44.552;-0.848;2023-02-17T07:29:30;3.10;99.90
42743;DHT22;28397;44.552;-0.848;2023-02-17T07:31:55;3.10;99.90
42743;DHT22;28397;44.552;-0.848;2023-02-17T07:34:21;3.20;99.90
42743;DHT22;28397;44.552;-0.848;2023-02-17T07:36:47;3.30;99.90
42743;DHT22;28397;44.552;-0.848;2023-02-17T07:39:13;3.40;99.90
42743;DHT22;28397;44.552;-0.848;2023-02-17T07:41:38;3.40;99.90
42743;DHT22;28397;44.552;-0.848;2023-02-17T07:44:04;3.50;99.90
42743;DHT22;28397;44.552;-0.848;2023-02-17T07:46:30;3.60;99.90
42743;DHT22;28397;44.552;-0.848;2023-02-17T07:48:56;3.60;99.90
42743;DHT22;28397;44.552;-0.848;2023-02-17T07:51:23;3.60;99.90
42743;DHT22;28397;44.552;-0.848;2023-02-17T07:53:50;3.80;99.90
42743;DHT22;28397;44.552;-0.848;2023-02-17T07:56:17;3.80;99.90
42743;DHT22;28397;44.552;-0.848;2023-02-17T07:58:44;3.90;99.90
42743;DHT22;28397;44.552;-0.848;2023-02-17T08:01:14;3.80;99.90
42743;DHT22;28397;44.552;-0.848;2023-02-17T08:03:40;3.90;99.90
42743;DHT22;28397;44.552;-0.848;2023-02-17T08:06:19;4.20;99.90
42743;DHT22;28397;44.552;-0.848;2023-02-17T08:08:45;4.20;99.90
42743;DHT22;28397;44.552;-0.848;2023-02-17T08:11:30;4.10;99.90
42743;DHT22;28397;44.552;-0.848;2023-02-17T08:14:14;4.30;99.90
42743;DHT22;28397;44.552;-0.848;2023-02-17T08:16:40;4.60;99.90
42743;DHT22;28397;44.552;-0.848;2023-02-17T08:19:07;4.60;99.90
42743;DHT22;28397;44.552;-0.848;2023-02-17T08:21:33;4.90;99.90
42743;DHT22;28397;44.552;-0.848;2023-02-17T08:23:59;5.00;99.90
42743;DHT22;28397;44.552;-0.848;2023-02-17T08:26:25;5.20;99.90
42743;DHT22;28397;44.552;-0.848;2023-02-17T08:28:51;5.40;99.90
42743;DHT22;28397;44.552;-0.848;2023-02-17T08:31:22;5.50;99.90
42743;DHT22;28397;44.552;-0.848;2023-02-17T08:33:48;5.60;99.90
42743;DHT22;28397;44.552;-0.848;2023-02-17T08:36:14;5.90;99.90
42743;DHT22;28397;44.552;-0.848;2023-02-17T08:38:40;5.90;99.90
42743;DHT22;28397;44.552;-0.848;2023-02-17T08:41:27;5.90;99.90
42743;DHT22;28397;44.552;-0.848;2023-02-17T08:43:57;5.90;99.90
42743;DHT22;28397;44.552;-0.848;2023-02-17T08:46:23;6.10;99.90
42743;DHT22;28397;44.552;-0.848;2023-02-17T08:48:49;6.40;99.90
42743;DHT22;28397;44.552;-0.848;2023-02-17T08:51:18;6.50;99.90
42743;DHT22;28397;44.552;-0.848;2023-02-17T08:53:48;6.60;99.90
42743;DHT22;28397;44.552;-0.848;2023-02-17T08:56:15;6.70;99.90
42743;DHT22;28397;44.552;-0.848;2023-02-17T08:58:41;6.80;99.90
42743;DHT22;28397;44.552;-0.848;2023-02-17T09:01:07;7.00;99.90
42743;DHT22;28397;44.552;-0.848;2023-02-17T09:03:33;7.20;99.90
42743;DHT22;28397;44.552;-0.848;2023-02-17T09:05:59;7.10;99.90
42743;DHT22;28397;44.552;-0.848;2023-02-17T09:08:25;7.30;99.90
42743;DHT22;28397;44.552;-0.848;2023-02-17T09:10:51;7.20;99.90
42743;DHT22;28397;44.552;-0.848;2023-02-17T09:13:17;7.30;99.90
42743;DHT22;28397;44.552;-0.848;2023-02-17T09:15:44;7.70;99.90
42743;DHT22;28397;44.552;-0.848;2023-02-17T09:18:10;7.80;99.90
42743;DHT22;28397;44.552;-0.848;2023-02-17T09:20:36;7.90;99.90
42743;DHT22;28397;44.552;-0.848;2023-02-17T09:23:04;8.50;99.90
42743;DHT22;28397;44.552;-0.848;2023-02-17T09:25:30;8.70;99.90
42743;DHT22;28397;44.552;-0.848;2023-02-17T09:27:55;8.70;99.90
42743;DHT22;28397;44.552;-0.848;2023-02-17T09:30:21;8.80;99.90
42743;DHT22;28397;44.552;-0.848;2023-02-17T09:32:47;9.10;99.90
42743;DHT22;28397;44.552;-0.848;2023-02-17T09:35:15;9.40;99.90
42743;DHT22;28397;44.552;-0.848;2023-02-17T09:37:40;9.30;99.90
42743;DHT22;28397;44.552;-0.848;2023-02-17T09:40:07;9.20;99.90
42743;DHT22;28397;44.552;-0.848;2023-02-17T09:42:37;9.60;99.90
42743;DHT22;28397;44.552;-0.848;2023-02-17T09:45:08;9.60;99.90
42743;DHT22;28397;44.552;-0.848;2023-02-17T09:47:42;10.10;99.90
42743;DHT22;28397;44.552;-0.848;2023-02-17T09:50:11;9.90;99.90
42743;DHT22;28397;44.552;-0.848;2023-02-17T09:55:40;10.20;99.90
42743;DHT22;28397;44.552;-0.848;2023-02-17T10:00:56;10.60;99.90
42743;DHT22;28397;44.552;-0.848;2023-02-17T10:03:27;10.90;99.90
42743;DHT22;28397;44.552;-0.848;2023-02-17T10:06:17;11.30;99.90
42743;DHT22;28397;44.552;-0.848;2023-02-17T10:09:10;11.40;99.90
42743;DHT22;28397;44.552;-0.848;2023-02-17T10:12:08;11.60;99.90
42743;DHT22;28397;44.552;-0.848;2023-02-17T10:14:41;12.10;99.90
42743;DHT22;28397;44.552;-0.848;2023-02-17T10:20:18;12.40;99.90
42743;DHT22;28397;44.552;-0.848;2023-02-17T10:22:50;12.80;99.90
42743;DHT22;28397;44.552;-0.848;2023-02-17T10:25:20;13.40;99.90
42743;DHT22;28397;44.552;-0.848;2023-02-17T10:27:58;13.90;99.90
42743;DHT22;28397;44.552;-0.848;2023-02-17T10:33:34;15.10;99.90
42743;DHT22;28397;44.552;-0.848;2023-02-17T10:36:10;15.30;99.90
42743;DHT22;28397;44.552;-0.848;2023-02-17T10:38:52;15.00;99.90
42743;DHT22;28397;44.552;-0.848;2023-02-17T10:41:32;14.90;99.90
42743;DHT22;28397;44.552;-0.848;2023-02-17T10:44:00;15.50;99.90
42743;DHT22;28397;44.552;-0.848;2023-02-17T10:46:29;17.10;99.90
42743;DHT22;28397;44.552;-0.848;2023-02-17T10:48:57;17.50;99.90
42743;DHT22;28397;44.552;-0.848;2023-02-17T10:51:28;18.10;99.90
42743;DHT22;28397;44.552;-0.848;2023-02-17T10:54:12;18.40;99.90
42743;DHT22;28397;44.552;-0.848;2023-02-17T10:56:44;17.40;99.90
42743;DHT22;28397;44.552;-0.848;2023-02-17T10:59:20;17.70;99.90
42743;DHT22;28397;44.552;-0.848;2023-02-17T11:01:47;19.10;99.90
42743;DHT22;28397;44.552;-0.848;2023-02-17T11:04:13;19.90;99.90
42743;DHT22;28397;44.552;-0.848;2023-02-17T11:06:51;19.50;99.90
42743;DHT22;28397;44.552;-0.848;2023-02-17T11:09:22;20.60;99.90
42743;DHT22;28397;44.552;-0.848;2023-02-17T11:14:45;22.20;99.90
42743;DHT22;28397;44.552;-0.848;2023-02-17T11:17:35;21.90;99.90
42743;DHT22;28397;44.552;-0.848;2023-02-17T11:22:43;22.40;99.90
42743;DHT22;28397;44.552;-0.848;2023-02-17T11:25:23;22.50;99.90
42743;DHT22;28397;44.552;-0.848;2023-02-17T11:27:53;23.00;99.90
42743;DHT22;28397;44.552;-0.848;2023-02-17T11:30:20;23.00;99.90
42743;DHT22;28397;44.552;-0.848;2023-02-17T11:32:47;22.20;99.90
42743;DHT22;28397;44.552;-0.848;2023-02-17T11:38:21;22.70;99.90
42743;DHT22;28397;44.552;-0.848;2023-02-17T11:41:01;22.20;99.90
42743;DHT22;28397;44.552;-0.848;2023-02-17T11:43:28;23.30;99.90
42743;DHT22;28397;44.552;-0.848;2023-02-17T11:53:53;23.40;99.90
42743;DHT22;28397;44.552;-0.848;2023-02-17T11:56:24;24.70;99.90
42743;DHT22;28397;44.552;-0.848;2023-02-17T12:09:56;22.40;99.90
42743;DHT22;28397;44.552;-0.848;2023-02-17T12:15:53;21.20;99.90
42743;DHT22;28397;44.552;-0.848;2023-02-17T12:21:48;19.90;99.90
42743;DHT22;28397;44.552;-0.848;2023-02-17T12:24:51;20.40;99.90
42743;DHT22;28397;44.552;-0.848;2023-02-17T12:35:36;23.40;99.90
42743;DHT22;28397;44.552;-0.848;2023-02-17T12:38:18;24.20;99.90
42743;DHT22;28397;44.552;-0.848;2023-02-17T12:41:06;21.60;99.90
42743;DHT22;28397;44.552;-0.848;2023-02-17T12:46:09;24.20;99.90
42743;DHT22;28397;44.552;-0.848;2023-02-17T12:51:25;24.40;99.90
42743;DHT22;28397;44.552;-0.848;2023-02-17T12:54:02;23.70;99.90
42743;DHT22;28397;44.552;-0.848;2023-02-17T12:56:45;22.00;99.90
42743;DHT22;28397;44.552;-0.848;2023-02-17T12:59:21;21.80;99.90
42743;DHT22;28397;44.552;-0.848;2023-02-17T13:02:06;22.10;99.90
42743;DHT22;28397;44.552;-0.848;2023-02-17T13:04:33;22.60;99.90
42743;DHT22;28397;44.552;-0.848;2023-02-17T13:07:16;21.60;99.90
42743;DHT22;28397;44.552;-0.848;2023-02-17T13:09:45;20.00;99.90
42743;DHT22;28397;44.552;-0.848;2023-02-17T13:19:47;22.20;99.90
42743;DHT22;28397;44.552;-0.848;2023-02-17T13:22:24;22.10;99.90
42743;DHT22;28397;44.552;-0.848;2023-02-17T13:24:52;22.00;99.90
42743;DHT22;28397;44.552;-0.848;2023-02-17T13:27:29;20.50;99.90
42743;DHT22;28397;44.552;-0.848;2023-02-17T13:32:30;21.70;99.90
42743;DHT22;28397;44.552;-0.848;2023-02-17T13:35:27;21.20;99.90
42743;DHT22;28397;44.552;-0.848;2023-02-17T13:37:53;21.00;99.90
42743;DHT22;28397;44.552;-0.848;2023-02-17T13:43:06;20.40;99.90
42743;DHT22;28397;44.552;-0.848;2023-02-17T13:45:46;19.80;99.90
42743;DHT22;28397;44.552;-0.848;2023-02-17T13:48:23;19.80;99.90
42743;DHT22;28397;44.552;-0.848;2023-02-17T13:51:00;20.60;99.90
42743;DHT22;28397;44.552;-0.848;2023-02-17T13:53:32;20.20;99.90
42743;DHT22;28397;44.552;-0.848;2023-02-17T13:56:10;20.60;99.90
42743;DHT22;28397;44.552;-0.848;2023-02-17T13:58:39;20.50;99.90
42743;DHT22;28397;44.552;-0.848;2023-02-17T14:01:11;20.80;99.90
42743;DHT22;28397;44.552;-0.848;2023-02-17T14:03:49;20.30;99.90
42743;DHT22;28397;44.552;-0.848;2023-02-17T14:06:45;19.90;99.90
42743;DHT22;28397;44.552;-0.848;2023-02-17T14:11:46;19.30;99.90
42743;DHT22;28397;44.552;-0.848;2023-02-17T14:14:13;19.10;99.90
42743;DHT22;28397;44.552;-0.848;2023-02-17T14:16:41;18.60;99.90
42743;DHT22;28397;44.552;-0.848;2023-02-17T14:19:14;19.20;99.90
42743;DHT22;28397;44.552;-0.848;2023-02-17T14:21:56;19.20;99.90
42743;DHT22;28397;44.552;-0.848;2023-02-17T14:24:26;19.50;99.90
42743;DHT22;28397;44.552;-0.848;2023-02-17T14:27:05;19.40;99.90
42743;DHT22;28397;44.552;-0.848;2023-02-17T14:30:01;19.20;99.90
42743;DHT22;28397;44.552;-0.848;2023-02-17T14:32:31;18.80;99.90
42743;DHT22;28397;44.552;-0.848;2023-02-17T14:37:42;19.60;99.90
42743;DHT22;28397;44.552;-0.848;2023-02-17T14:40:22;19.70;99.90
42743;DHT22;28397;44.552;-0.848;2023-02-17T14:42:49;18.80;99.90
42743;DHT22;28397;44.552;-0.848;2023-02-17T14:45:16;19.20;99.90
42743;DHT22;28397;44.552;-0.848;2023-02-17T14:47:43;19.20;99.90
42743;DHT22;28397;44.552;-0.848;2023-02-17T14:50:09;19.10;99.90
42743;DHT22;28397;44.552;-0.848;2023-02-17T14:52:46;19.00;99.90
42743;DHT22;28397;44.552;-0.848;2023-02-17T14:55:36;19.00;99.90
42743;DHT22;28397;44.552;-0.848;2023-02-17T14:58:00;19.00;99.90
42743;DHT22;28397;44.552;-0.848;2023-02-17T15:00:27;19.00;99.90
42743;DHT22;28397;44.552;-0.848;2023-02-17T15:02:52;18.90;99.90
42743;DHT22;28397;44.552;-0.848;2023-02-17T15:05:18;18.70;99.90
42743;DHT22;28397;44.552;-0.848;2023-02-17T15:07:44;18.80;99.90
42743;DHT22;28397;44.552;-0.848;2023-02-17T15:10:28;18.70;99.90
42743;DHT22;28397;44.552;-0.848;2023-02-17T15:12:54;18.60;99.90
42743;DHT22;28397;44.552;-0.848;2023-02-17T15:15:20;18.60;99.90
42743;DHT22;28397;44.552;-0.848;2023-02-17T15:17:47;18.60;99.90
42743;DHT22;28397;44.552;-0.848;2023-02-17T15:20:14;18.70;99.90
42743;DHT22;28397;44.552;-0.848;2023-02-17T15:22:41;18.70;99.90
42743;DHT22;28397;44.552;-0.848;2023-02-17T15:25:13;18.30;99.90
42743;DHT22;28397;44.552;-0.848;2023-02-17T15:27:40;18.30;99.90
42743;DHT22;28397;44.552;-0.848;2023-02-17T15:30:10;18.40;99.90
42743;DHT22;28397;44.552;-0.848;2023-02-17T15:32:36;18.20;99.90
42743;DHT22;28397;44.552;-0.848;2023-02-17T15:35:07;18.50;99.90
42743;DHT22;28397;44.552;-0.848;2023-02-17T15:37:37;18.40;99.90
42743;DHT22;28397;44.552;-0.848;2023-02-17T15:40:03;18.40;99.90
42743;DHT22;28397;44.552;-0.848;2023-02-17T15:42:29;18.20;99.90
42743;DHT22;28397;44.552;-0.848;2023-02-17T15:44:54;18.30;99.90
42743;DHT22;28397;44.552;-0.848;2023-02-17T15:47:20;18.20;99.90
42743;DHT22;28397;44.552;-0.848;2023-02-17T15:49:46;18.30;99.90
42743;DHT22;28397;44.552;-0.848;2023-02-17T15:52:13;18.30;99.90
42743;DHT22;28397;44.552;-0.848;2023-02-17T15:54:42;18.10;99.90
42743;DHT22;28397;44.552;-0.848;2023-02-17T15:57:19;18.10;99.90
42743;DHT22;28397;44.552;-0.848;2023-02-17T15:59:45;17.70;99.90
42743;DHT22;28397;44.552;-0.848;2023-02-17T16:02:20;17.60;99.90
42743;DHT22;28397;44.552;-0.848;2023-02-17T16:04:46;17.70;99.90
42743;DHT22;28397;44.552;-0.848;2023-02-17T16:07:13;17.80;99.90
42743;DHT22;28397;44.552;-0.848;2023-02-17T16:09:38;17.60;99.90
42743;DHT22;28397;44.552;-0.848;2023-02-17T16:12:07;17.60;99.90
42743;DHT22;28397;44.552;-0.848;2023-02-17T16:14:37;17.50;99.90
42743;DHT22;28397;44.552;-0.848;2023-02-17T16:17:03;17.60;99.90
42743;DHT22;28397;44.552;-0.848;2023-02-17T16:19:35;17.50;99.90
42743;DHT22;28397;44.552;-0.848;2023-02-17T16:22:01;17.30;99.90
42743;DHT22;28397;44.552;-0.848;2023-02-17T16:24:27;17.30;99.90
42743;DHT22;28397;44.552;-0.848;2023-02-17T16:26:52;17.30;99.90
42743;DHT22;28397;44.552;-0.848;2023-02-17T16:29:21;17.30;99.90
42743;DHT22;28397;44.552;-0.848;2023-02-17T16:31:48;17.30;99.90
42743;DHT22;28397;44.552;-0.848;2023-02-17T16:34:21;17.20;99.90
42743;DHT22;28397;44.552;-0.848;2023-02-17T16:36:48;17.00;99.90
42743;DHT22;28397;44.552;-0.848;2023-02-17T16:39:17;16.90;99.90
42743;DHT22;28397;44.552;-0.848;2023-02-17T16:41:45;16.80;99.90
42743;DHT22;28397;44.552;-0.848;2023-02-17T16:44:15;16.80;99.90
42743;DHT22;28397;44.552;-0.848;2023-02-17T16:46:47;16.80;99.90
42743;DHT22;28397;44.552;-0.848;2023-02-17T16:51:50;16.40;99.90
42743;DHT22;28397;44.552;-0.848;2023-02-17T16:54:16;16.40;99.90
42743;DHT22;28397;44.552;-0.848;2023-02-17T16:56:46;16.20;99.90
42743;DHT22;28397;44.552;-0.848;2023-02-17T16:59:17;16.10;99.90
42743;DHT22;28397;44.552;-0.848;2023-02-17T17:01:43;16.10;99.90
42743;DHT22;28397;44.552;-0.848;2023-02-17T17:04:10;15.90;99.90
42743;DHT22;28397;44.552;-0.848;2023-02-17T17:06:37;15.90;99.90
42743;DHT22;28397;44.552;-0.848;2023-02-17T17:09:06;15.60;99.90
42743;DHT22;28397;44.552;-0.848;2023-02-17T17:11:32;15.60;99.90
42743;DHT22;28397;44.552;-0.848;2023-02-17T17:13:58;15.50;99.90
42743;DHT22;28397;44.552;-0.848;2023-02-17T17:16:29;15.30;99.90
42743;DHT22;28397;44.552;-0.848;2023-02-17T17:18:57;15.30;99.90